createdAt,value
2018-10-11T00:00:04.201Z,37.47
2018-10-11T00:02:32.765Z,37.60
2018-10-11T00:05:01.366Z,36.60
2018-10-11T00:07:29.953Z,36.50
2018-10-11T00:09:58.544Z,37.10
2018-10-11T00:12:27.081Z,35.53
2018-10-11T00:14:55.809Z,36.87
2018-10-11T00:17:24.447Z,37.50
2018-10-11T00:19:53.049Z,36.53
2018-10-11T00:22:21.563Z,35.87
2018-10-11T00:24:50.058Z,39.60
2018-10-11T00:27:18.593Z,36.03
2018-10-11T00:29:47.131Z,35.43
2018-10-11T00:32:15.634Z,38.20
2018-10-11T00:34:44.215Z,37.20
2018-10-11T00:37:12.815Z,39.20
2018-10-11T00:39:41.385Z,36.73
2018-10-11T00:42:09.876Z,39.27
2018-10-11T00:44:38.394Z,37.67
2018-10-11T00:47:07.317Z,38.83
2018-10-11T00:49:35.888Z,39.70
2018-10-11T00:52:04.458Z,39.33
2018-10-11T00:54:33.018Z,38.23
2018-10-11T00:57:01.547Z,37.90
2018-10-11T00:59:30.155Z,39.60
2018-10-11T01:01:58.708Z,38.47
2018-10-11T01:04:27.234Z,40.83
2018-10-11T01:06:55.804Z,39.67
2018-10-11T01:09:24.377Z,40.40
2018-10-11T01:11:52.887Z,39.77
2018-10-11T01:14:21.462Z,40.47
2018-10-11T01:16:49.977Z,40.63
2018-10-11T01:19:18.604Z,40.10
2018-10-11T01:21:47.126Z,41.17
2018-10-11T01:24:15.626Z,39.90
2018-10-11T01:26:44.158Z,41.53
2018-10-11T01:29:12.935Z,40.37
2018-10-11T01:31:41.557Z,41.20
2018-10-11T01:34:10.064Z,41.70
2018-10-11T01:36:38.574Z,40.10
2018-10-11T01:39:07.379Z,43.30
2018-10-11T01:41:35.936Z,40.83
2018-10-11T01:44:04.493Z,41.77
2018-10-11T01:46:33.022Z,42.30
2018-10-11T01:49:01.728Z,42.00
2018-10-11T01:51:30.802Z,42.43
2018-10-11T01:53:59.358Z,41.33
2018-10-11T01:56:28.505Z,42.13
2018-10-11T01:58:57.050Z,42.70
2018-10-11T02:01:25.674Z,43.57
2018-10-11T02:03:54.191Z,41.60
2018-10-11T02:06:22.710Z,46.10
2018-10-11T02:08:51.285Z,45.87
2018-10-11T02:11:19.854Z,42.47
2018-10-11T02:13:48.371Z,43.07
2018-10-11T02:16:16.905Z,43.37
2018-10-11T02:18:45.450Z,46.20
2018-10-11T02:21:13.977Z,45.80
2018-10-11T02:23:42.534Z,44.40
2018-10-11T02:26:11.150Z,44.33
2018-10-11T02:28:39.659Z,47.63
2018-10-11T02:31:08.242Z,44.90
2018-10-11T02:33:36.870Z,43.37
2018-10-11T02:36:05.441Z,45.90
2018-10-11T02:38:34.011Z,44.67
2018-10-11T02:41:02.615Z,46.17
2018-10-11T02:43:31.215Z,44.50
2018-10-11T02:45:59.725Z,46.10
2018-10-11T02:48:28.359Z,46.93
2018-10-11T02:50:56.923Z,47.83
2018-10-11T02:53:25.466Z,46.83
2018-10-11T02:55:54.053Z,47.57
2018-10-11T02:58:33.658Z,47.90
2018-10-11T03:01:02.343Z,46.00
2018-10-11T03:03:31.069Z,44.93
2018-10-11T03:06:00.310Z,48.67
2018-10-11T03:08:29.234Z,50.37
2018-10-11T03:10:58.137Z,47.37
2018-10-11T03:13:26.707Z,48.67
2018-10-11T03:15:55.228Z,49.07
2018-10-11T03:18:23.726Z,46.60
2018-10-11T03:20:52.270Z,46.67
2018-10-11T03:23:20.863Z,47.87
2018-10-11T03:25:49.412Z,50.87
2018-10-11T03:28:18.398Z,50.93
2018-10-11T03:30:46.943Z,49.10
2018-10-11T03:33:15.754Z,49.90
2018-10-11T03:35:44.932Z,50.07
2018-10-11T03:38:13.961Z,48.73
2018-10-11T03:40:42.674Z,49.73
2018-10-11T03:43:11.277Z,48.20
2018-10-11T03:45:39.840Z,44.83
2018-10-11T03:48:08.343Z,47.43
2018-10-11T03:50:36.981Z,48.23
2018-10-11T03:53:05.482Z,47.77
2018-10-11T03:55:34.029Z,45.70
2018-10-11T03:58:02.509Z,48.77
2018-10-11T04:00:31.217Z,49.10
2018-10-11T04:02:59.797Z,49.90
2018-10-11T04:05:28.301Z,47.57
2018-10-11T04:07:56.848Z,47.93
2018-10-11T04:10:25.347Z,49.37
2018-10-11T04:12:53.848Z,48.63
2018-10-11T04:15:22.484Z,47.93
2018-10-11T04:17:50.989Z,49.47
2018-10-11T04:20:19.506Z,49.60
2018-10-11T04:22:48.065Z,46.80
2018-10-11T04:25:16.582Z,48.27
2018-10-11T04:27:45.123Z,49.47
2018-10-11T04:30:13.768Z,47.83
2018-10-11T04:32:42.349Z,49.17
2018-10-11T04:35:10.830Z,51.47
2018-10-11T04:37:39.435Z,51.30
2018-10-11T04:40:08.082Z,50.90
2018-10-11T04:42:36.753Z,51.83
2018-10-11T04:45:05.419Z,47.73
2018-10-11T04:47:34.015Z,49.27
2018-10-11T04:50:02.572Z,50.63
2018-10-11T04:52:31.176Z,49.77
2018-10-11T04:54:59.666Z,53.07
2018-10-11T04:57:28.216Z,50.60
2018-10-11T04:59:56.766Z,50.97
2018-10-11T05:02:25.409Z,47.37
2018-10-11T05:04:54.001Z,50.33
2018-10-11T05:07:22.531Z,49.67
2018-10-11T05:09:51.206Z,52.50
2018-10-11T05:12:19.773Z,51.40
2018-10-11T05:14:48.347Z,50.17
2018-10-11T05:17:18.755Z,51.37
2018-10-11T05:19:47.280Z,51.47
2018-10-11T05:22:15.851Z,50.90
2018-10-11T05:24:44.386Z,51.70
2018-10-11T05:27:12.970Z,51.60
2018-10-11T05:29:41.571Z,54.73
2018-10-11T05:32:10.113Z,53.70
2018-10-11T05:34:38.723Z,51.60
2018-10-11T05:37:13.818Z,52.97
2018-10-11T05:39:42.394Z,50.87
2018-10-11T05:42:10.995Z,55.90
2018-10-11T05:44:39.602Z,50.97
2018-10-11T05:47:08.162Z,48.70
2018-10-11T05:49:36.751Z,51.00
2018-10-11T05:52:05.349Z,50.00
2018-10-11T05:54:33.917Z,47.67
2018-10-11T05:57:02.417Z,47.53
2018-10-11T05:59:31.032Z,45.33
2018-10-11T06:01:59.582Z,46.47
2018-10-11T06:04:28.064Z,46.63
2018-10-11T06:06:56.607Z,43.97
2018-10-11T06:09:25.466Z,46.43
2018-10-11T06:11:54.130Z,44.10
2018-10-11T06:14:22.700Z,44.07
2018-10-11T06:16:51.205Z,46.30
2018-10-11T06:19:19.741Z,46.27
2018-10-11T06:21:48.261Z,43.83
2018-10-11T06:24:16.834Z,48.27
2018-10-11T06:26:45.348Z,45.70
2018-10-11T06:29:13.966Z,45.87
2018-10-11T06:31:42.588Z,46.00
2018-10-11T06:34:11.179Z,45.77
2018-10-11T06:36:40.540Z,45.00
2018-10-11T06:39:09.876Z,46.90
2018-10-11T06:41:38.555Z,48.30
2018-10-11T06:44:07.583Z,43.70
2018-10-11T06:46:36.243Z,46.57
2018-10-11T06:49:05.023Z,41.87
2018-10-11T06:51:33.784Z,42.23
2018-10-11T06:54:02.494Z,41.30
2018-10-11T06:56:31.084Z,41.30
2018-10-11T06:58:59.618Z,41.30
2018-10-11T07:01:28.220Z,40.90
2018-10-11T07:03:56.783Z,38.53
2018-10-11T07:06:25.306Z,39.27
2018-10-11T07:08:53.858Z,34.80
2018-10-11T07:11:22.441Z,38.00
2018-10-11T07:13:50.994Z,35.87
2018-10-11T07:16:19.571Z,32.37
2018-10-11T07:18:48.980Z,33.07
2018-10-11T07:21:17.512Z,31.60
2018-10-11T07:23:46.135Z,31.80
2018-10-11T07:26:14.675Z,30.33
2018-10-11T07:28:43.239Z,27.53
2018-10-11T07:31:11.781Z,28.23
2018-10-11T07:33:40.390Z,28.13
2018-10-11T07:36:08.986Z,26.70
2018-10-11T07:38:37.541Z,27.80
2018-10-11T07:41:06.251Z,28.30
2018-10-11T07:43:34.602Z,28.80
2018-10-11T07:46:03.189Z,31.17
2018-10-11T07:48:31.713Z,34.37
2018-10-11T07:51:00.245Z,31.90
2018-10-11T07:53:28.955Z,31.00
2018-10-11T07:55:57.530Z,31.67
2018-10-11T07:58:26.156Z,31.70
2018-10-11T08:00:54.681Z,28.60
2018-10-11T08:03:23.284Z,30.50
2018-10-11T08:05:52.009Z,28.93
2018-10-11T08:08:20.599Z,30.20
2018-10-11T08:10:49.351Z,28.87
2018-10-11T08:13:17.913Z,27.63
2018-10-11T08:15:46.507Z,28.67
2018-10-11T08:18:15.063Z,27.80
2018-10-11T08:20:43.555Z,28.73
2018-10-11T08:23:12.120Z,27.80
2018-10-11T08:25:40.991Z,28.07
2018-10-11T08:28:09.363Z,26.07
2018-10-11T08:30:37.899Z,23.20
2018-10-11T08:33:06.662Z,25.40
2018-10-11T08:35:35.159Z,24.43
2018-10-11T08:38:10.417Z,25.10
2018-10-11T08:40:38.831Z,24.10
2018-10-11T08:43:07.456Z,24.47
2018-10-11T08:45:35.993Z,23.60
2018-10-11T08:48:04.619Z,24.10
2018-10-11T08:50:33.200Z,25.40
2018-10-11T08:53:01.751Z,23.37
2018-10-11T08:55:30.424Z,25.50
2018-10-11T08:57:58.930Z,23.33
2018-10-11T09:00:27.482Z,24.50
2018-10-11T09:02:56.145Z,23.90
2018-10-11T09:05:24.706Z,23.57
2018-10-11T09:07:53.243Z,25.40
2018-10-11T09:10:21.856Z,23.73
2018-10-11T09:12:50.391Z,24.97
2018-10-11T09:15:19.010Z,24.27
2018-10-11T09:17:47.563Z,24.87
2018-10-11T09:20:16.147Z,23.90
2018-10-11T09:22:44.724Z,24.00
2018-10-11T09:25:13.300Z,24.53
2018-10-11T09:27:41.885Z,25.10
2018-10-11T09:30:10.464Z,24.77
2018-10-11T09:32:39.104Z,24.43
2018-10-11T09:35:07.978Z,24.60
2018-10-11T09:37:36.547Z,27.03
2018-10-11T09:40:05.506Z,24.40
2018-10-11T09:42:34.092Z,22.40
2018-10-11T09:45:02.665Z,23.73
2018-10-11T09:47:31.198Z,22.50
2018-10-11T09:49:59.771Z,22.17
2018-10-11T09:52:28.364Z,22.77
2018-10-11T09:54:57.130Z,24.07
2018-10-11T09:57:29.623Z,21.53
2018-10-11T09:59:58.712Z,21.33
2018-10-11T10:02:27.802Z,21.70
2018-10-11T10:05:03.843Z,20.60
2018-10-11T10:07:32.498Z,20.70
2018-10-11T10:10:01.047Z,20.00
2018-10-11T10:12:29.637Z,21.20
2018-10-11T10:14:58.318Z,18.43
2018-10-11T10:17:26.851Z,18.67
2018-10-11T10:19:55.394Z,19.37
2018-10-11T10:22:23.991Z,18.37
2018-10-11T10:24:52.552Z,20.10
2018-10-11T10:27:21.303Z,19.83
2018-10-11T10:29:49.641Z,17.87
2018-10-11T10:32:18.242Z,17.33
2018-10-11T10:34:46.750Z,16.17
2018-10-11T10:37:15.332Z,16.50
2018-10-11T10:39:44.072Z,17.70
2018-10-11T10:42:12.682Z,16.30
2018-10-11T10:44:41.239Z,15.47
2018-10-11T10:47:09.981Z,15.40
2018-10-11T10:49:38.542Z,15.40
2018-10-11T10:52:07.166Z,15.93
2018-10-11T10:54:36.427Z,15.67
2018-10-11T10:57:05.572Z,13.57
2018-10-11T10:59:34.187Z,14.80
2018-10-11T11:02:02.737Z,14.20
2018-10-11T11:04:31.305Z,16.10
2018-10-11T11:06:59.804Z,13.80
2018-10-11T11:09:28.377Z,13.90
2018-10-11T11:11:56.891Z,13.23
2018-10-11T11:14:25.444Z,13.80
2018-10-11T11:16:54.099Z,14.60
2018-10-11T11:19:22.592Z,13.00
2018-10-11T11:21:51.188Z,13.00
2018-10-11T11:24:19.705Z,13.13
2018-10-11T11:26:48.268Z,12.00
2018-10-11T11:29:16.867Z,12.00
2018-10-11T11:31:45.437Z,13.10
2018-10-11T11:34:13.979Z,12.63
2018-10-11T11:36:42.572Z,12.63
2018-10-11T11:39:11.323Z,12.90
2018-10-11T11:41:39.947Z,11.37
2018-10-11T11:44:08.503Z,12.10
2018-10-11T11:46:37.063Z,10.90
2018-10-11T11:49:05.619Z,12.07
2018-10-11T11:51:34.176Z,22.53
2018-10-11T11:54:02.748Z,18.27
2018-10-11T11:56:31.294Z,14.40
2018-10-11T11:58:59.890Z,11.13
2018-10-11T12:01:28.476Z,10.10
2018-10-11T12:03:56.982Z,9.03
2018-10-11T12:06:25.566Z,10.60
2018-10-11T12:08:54.078Z,9.17
2018-10-11T12:11:22.660Z,10.33
2018-10-11T12:13:51.264Z,9.20
2018-10-11T12:16:19.842Z,9.63
2018-10-11T12:18:48.399Z,9.40
2018-10-11T12:21:16.987Z,9.97
2018-10-11T12:23:45.530Z,7.90
2018-10-11T12:26:14.065Z,8.77
2018-10-11T12:28:42.747Z,7.60
2018-10-11T12:31:11.162Z,7.60
2018-10-11T12:33:39.744Z,7.70
2018-10-11T12:36:08.362Z,10.30
2018-10-11T12:38:36.956Z,9.60
2018-10-11T12:41:05.476Z,9.50
2018-10-11T12:43:34.015Z,9.20
2018-10-11T12:46:02.599Z,10.37
2018-10-11T12:48:31.118Z,7.53
2018-10-11T12:50:59.774Z,5.77
2018-10-11T12:53:28.336Z,7.13
2018-10-11T12:55:56.898Z,8.20
2018-10-11T12:58:25.498Z,8.67
2018-10-11T13:00:54.111Z,8.43
2018-10-11T13:03:22.837Z,7.53
2018-10-11T13:05:51.238Z,7.83
2018-10-11T13:08:19.755Z,7.80
2018-10-11T13:10:48.300Z,8.30
2018-10-11T13:13:16.871Z,8.40
2018-10-11T13:15:46.346Z,8.43
2018-10-11T13:18:14.842Z,8.77
2018-10-11T13:20:43.440Z,8.00
2018-10-11T13:23:15.753Z,6.90
2018-10-11T13:25:40.714Z,7.93
2018-10-11T13:28:09.262Z,6.87
2018-10-11T13:30:37.895Z,7.47
2018-10-11T13:33:06.439Z,7.37
2018-10-11T13:35:35.057Z,7.00
2018-10-11T13:38:03.590Z,7.90
2018-10-11T13:40:32.177Z,7.63
2018-10-11T13:43:01.076Z,7.10
2018-10-11T13:45:29.611Z,8.07
2018-10-11T13:47:58.253Z,8.50
2018-10-11T13:50:26.793Z,7.53
2018-10-11T13:52:55.344Z,8.13
2018-10-11T13:55:23.883Z,6.13
2018-10-11T13:57:52.499Z,8.07
2018-10-11T14:00:21.128Z,8.13
2018-10-11T14:02:49.767Z,7.80
2018-10-11T14:05:18.323Z,7.70
2018-10-11T14:07:46.861Z,7.97
2018-10-11T14:10:15.478Z,7.27
2018-10-11T14:12:44.054Z,7.43
2018-10-11T14:15:12.616Z,7.80
2018-10-11T14:17:41.229Z,6.70
2018-10-11T14:20:09.912Z,7.77
2018-10-11T14:22:38.441Z,6.43
2018-10-11T14:25:07.363Z,7.47
2018-10-11T14:27:35.933Z,7.80
2018-10-11T14:30:04.534Z,7.30
2018-10-11T14:32:33.191Z,7.10
2018-10-11T14:35:01.823Z,7.90
2018-10-11T14:37:30.473Z,7.90
2018-10-11T14:39:59.059Z,7.37
2018-10-11T14:42:27.591Z,7.50
2018-10-11T14:44:56.234Z,7.50
2018-10-11T14:47:24.783Z,6.13
2018-10-11T14:49:53.365Z,7.67
2018-10-11T14:52:21.921Z,6.50
2018-10-11T14:54:50.481Z,6.90
2018-10-11T14:57:19.294Z,8.00
2018-10-11T14:59:47.875Z,7.93
2018-10-11T15:02:16.505Z,7.70
2018-10-11T15:04:45.134Z,8.17
2018-10-11T15:07:13.688Z,7.40
2018-10-11T15:09:42.305Z,7.63
2018-10-11T15:12:10.915Z,8.10
2018-10-11T15:14:39.459Z,7.83
2018-10-11T15:17:08.055Z,8.63
2018-10-11T15:19:36.586Z,8.93
2018-10-11T15:22:05.202Z,8.50
2018-10-11T15:24:33.872Z,8.33
2018-10-11T15:27:02.394Z,7.43
2018-10-11T15:29:31.076Z,8.30
2018-10-11T15:31:59.553Z,9.77
2018-10-11T15:34:28.120Z,9.47
2018-10-11T15:36:56.678Z,11.90
2018-10-11T15:39:25.241Z,10.00
2018-10-11T15:41:53.833Z,8.83
2018-10-11T15:44:22.398Z,8.70
2018-10-11T15:46:50.950Z,9.03
2018-10-11T15:49:19.572Z,9.80
2018-10-11T15:51:48.096Z,9.10
2018-10-11T15:54:16.626Z,8.77
2018-10-11T15:56:45.155Z,8.00
2018-10-11T15:59:13.699Z,8.10
2018-10-11T16:01:42.290Z,8.03
2018-10-11T16:04:10.801Z,7.83
2018-10-11T16:06:39.483Z,9.27
2018-10-11T16:09:09.224Z,9.47
2018-10-11T16:11:37.770Z,8.33
2018-10-11T16:14:06.323Z,9.23
2018-10-11T16:16:34.882Z,9.53
2018-10-11T16:19:03.447Z,9.47
2018-10-11T16:21:31.952Z,8.90
2018-10-11T16:24:00.515Z,10.20
2018-10-11T16:26:29.196Z,10.10
2018-10-11T16:28:57.723Z,10.20
2018-10-11T16:31:26.379Z,9.40
2018-10-11T16:33:54.979Z,10.40
2018-10-11T16:36:23.610Z,9.30
2018-10-11T16:38:52.151Z,9.40
2018-10-11T16:41:20.738Z,11.17
2018-10-11T16:43:49.348Z,10.40
2018-10-11T16:46:17.881Z,9.50
2018-10-11T16:48:46.503Z,10.20
2018-10-11T16:51:15.039Z,10.60
2018-10-11T16:53:43.576Z,11.80
2018-10-11T16:56:12.115Z,11.20
2018-10-11T16:58:40.665Z,10.27
2018-10-11T17:01:09.278Z,10.07
2018-10-11T17:03:37.796Z,11.40
2018-10-11T17:06:06.382Z,11.30
2018-10-11T17:08:35.023Z,10.00
2018-10-11T17:11:03.583Z,10.60
2018-10-11T17:13:32.162Z,9.80
2018-10-11T17:16:00.748Z,10.53
2018-10-11T17:18:29.335Z,11.97
2018-10-11T17:20:58.055Z,10.60
2018-10-11T17:23:26.707Z,10.43
2018-10-11T17:25:55.296Z,9.47
2018-10-11T17:28:23.990Z,9.40
2018-10-11T17:30:52.647Z,10.70
2018-10-11T17:33:21.138Z,10.07
2018-10-11T17:35:49.645Z,10.10
2018-10-11T17:38:18.136Z,11.40
2018-10-11T17:40:46.708Z,11.40
2018-10-11T17:43:15.331Z,11.33
2018-10-11T17:45:43.910Z,11.60
2018-10-11T17:48:12.459Z,11.20
2018-10-11T17:50:41.007Z,10.37
2018-10-11T17:53:09.532Z,10.23
2018-10-11T17:55:38.067Z,11.40
2018-10-11T17:58:06.699Z,11.70
2018-10-11T18:00:36.715Z,10.90
2018-10-11T18:03:05.950Z,12.07
2018-10-11T18:05:34.466Z,10.77
2018-10-11T18:08:03.011Z,12.07
2018-10-11T18:10:31.528Z,10.50
2018-10-11T18:13:00.079Z,11.70
2018-10-11T18:15:28.719Z,11.37
2018-10-11T18:17:57.393Z,11.90
2018-10-11T18:20:25.987Z,11.50
2018-10-11T18:22:54.582Z,12.00
2018-10-11T18:25:23.454Z,11.43
2018-10-11T18:27:52.255Z,12.43
2018-10-11T18:30:20.830Z,11.97
2018-10-11T18:32:50.144Z,12.27
2018-10-11T18:35:18.821Z,11.47
2018-10-11T18:37:47.401Z,12.10
2018-10-11T18:40:15.922Z,13.50
2018-10-11T18:42:44.441Z,11.73
2018-10-11T18:45:12.966Z,11.33
2018-10-11T18:47:41.532Z,12.57
2018-10-11T18:50:10.111Z,13.00
2018-10-11T18:52:38.665Z,12.60
2018-10-11T18:55:07.350Z,13.73
2018-10-11T18:57:36.290Z,14.13
2018-10-11T19:00:05.471Z,13.20
2018-10-11T19:02:34.180Z,14.47
2018-10-11T19:05:02.761Z,13.63
2018-10-11T19:07:31.430Z,14.10
2018-10-11T19:09:59.996Z,13.20
2018-10-11T19:12:28.498Z,14.50
2018-10-11T19:14:57.063Z,13.70
2018-10-11T19:17:25.679Z,12.80
2018-10-11T19:19:54.246Z,13.77
2018-10-11T19:22:22.739Z,12.10
2018-10-11T19:24:51.295Z,13.13
2018-10-11T19:27:19.930Z,12.77
2018-10-11T19:29:48.446Z,13.57
2018-10-11T19:32:17.021Z,13.60
2018-10-11T19:34:45.626Z,13.20
2018-10-11T19:37:14.206Z,13.37
2018-10-11T19:39:42.735Z,12.07
2018-10-11T19:42:11.291Z,12.57
2018-10-11T19:44:39.819Z,13.77
2018-10-11T19:47:08.358Z,11.73
2018-10-11T19:49:36.883Z,13.37
2018-10-11T19:52:05.461Z,12.50
2018-10-11T19:54:34.065Z,13.40
2018-10-11T19:57:02.710Z,12.80
2018-10-11T19:59:31.239Z,11.87
2018-10-11T20:02:00.192Z,12.40
2018-10-11T20:04:28.814Z,11.37
2018-10-11T20:06:57.391Z,12.20
2018-10-11T20:09:26.003Z,12.77
2018-10-11T20:11:54.586Z,11.63
2018-10-11T20:14:23.075Z,11.30
2018-10-11T20:16:51.927Z,12.10
2018-10-11T20:19:20.495Z,10.83
2018-10-11T20:21:49.057Z,11.80
2018-10-11T20:24:17.632Z,13.60
2018-10-11T20:26:46.224Z,11.93
2018-10-11T20:29:14.883Z,12.20
2018-10-11T20:31:43.440Z,12.93
2018-10-11T20:34:12.048Z,12.90
2018-10-11T20:36:40.566Z,12.70
2018-10-11T20:39:13.196Z,12.90
2018-10-11T20:41:41.746Z,12.77
2018-10-11T20:44:10.231Z,11.63
2018-10-11T20:46:38.874Z,12.17
2018-10-11T20:49:07.393Z,13.50
2018-10-11T20:51:35.958Z,12.90
2018-10-11T20:54:04.477Z,13.53
2018-10-11T20:56:39.434Z,11.63
2018-10-11T20:59:08.097Z,13.43
2018-10-11T21:01:36.603Z,12.37
2018-10-11T21:04:05.154Z,13.33
2018-10-11T21:06:33.677Z,12.10
2018-10-11T21:09:02.271Z,13.50
2018-10-11T21:11:30.818Z,12.77
2018-10-11T21:13:59.382Z,13.40
2018-10-11T21:16:27.992Z,11.47
2018-10-11T21:18:56.522Z,12.80
2018-10-11T21:21:25.147Z,12.97
2018-10-11T21:23:54.607Z,12.47
2018-10-11T21:26:23.138Z,13.37
2018-10-11T21:28:51.726Z,13.50
2018-10-11T21:31:20.317Z,13.10
2018-10-11T21:33:48.855Z,13.27
2018-10-11T21:36:17.417Z,12.90
2018-10-11T21:38:45.935Z,12.30
2018-10-11T21:41:14.436Z,12.97
2018-10-11T21:43:42.978Z,13.53
2018-10-11T21:46:11.510Z,13.60
2018-10-11T21:48:40.133Z,13.87
2018-10-11T21:51:08.648Z,14.13
2018-10-11T21:53:37.186Z,13.43
2018-10-11T21:56:05.758Z,13.27
2018-10-11T21:58:34.357Z,13.80
2018-10-11T22:01:07.963Z,13.57
2018-10-11T22:03:36.566Z,12.80
2018-10-11T22:06:05.146Z,13.40
2018-10-11T22:08:33.745Z,13.43
2018-10-11T22:11:02.271Z,14.67
2018-10-11T22:13:30.826Z,13.23
2018-10-11T22:15:59.535Z,14.40
2018-10-11T22:21:10.601Z,15.20
2018-10-11T22:23:40.070Z,15.40
2018-10-11T22:26:09.448Z,14.60
2018-10-11T22:28:38.576Z,13.93
2018-10-11T22:31:07.792Z,14.47
2018-10-11T22:33:36.385Z,15.73
2018-10-11T22:36:05.002Z,15.30
2018-10-11T22:38:33.547Z,15.57
2018-10-11T22:41:02.180Z,15.23
2018-10-11T22:43:31.297Z,15.77
2018-10-11T22:45:59.917Z,14.67
2018-10-11T22:48:28.514Z,16.87
2018-10-11T22:50:57.115Z,16.47
2018-10-11T22:53:25.627Z,16.33
2018-10-11T22:55:54.178Z,16.70
2018-10-11T22:58:22.708Z,16.47
2018-10-11T23:00:51.896Z,16.63
2018-10-11T23:03:20.438Z,17.07
2018-10-11T23:05:49.001Z,17.00
2018-10-11T23:08:17.634Z,17.57
2018-10-11T23:10:46.145Z,16.57
2018-10-11T23:13:14.721Z,18.00
2018-10-11T23:15:43.412Z,17.53
2018-10-11T23:18:12.761Z,17.97
2018-10-11T23:20:41.240Z,17.60
2018-10-11T23:23:09.813Z,16.67
2018-10-11T23:25:38.381Z,16.47
2018-10-11T23:28:07.186Z,15.87
2018-10-11T23:30:35.714Z,15.63
2018-10-11T23:33:04.250Z,16.50
2018-10-11T23:35:32.790Z,17.10
2018-10-11T23:38:01.349Z,15.37
2018-10-11T23:40:30.024Z,15.90
2018-10-11T23:42:58.632Z,14.60
2018-10-11T23:45:27.205Z,14.67
2018-10-11T23:47:55.694Z,15.60
2018-10-11T23:50:24.194Z,15.93
2018-10-11T23:52:52.777Z,16.30
2018-10-11T23:55:21.266Z,15.53
2018-10-11T23:57:49.793Z,15.50
